createdAt,value
2022-11-16T00:03:39.308Z,14.75
2022-11-16T00:08:44.328Z,13.73
2022-11-16T00:13:46.374Z,11.02
2022-11-16T00:18:48.197Z,14.18
2022-11-16T00:23:50.181Z,13.50
2022-11-16T00:28:53.991Z,13.50
2022-11-16T00:33:55.793Z,14.23
2022-11-16T00:38:57.637Z,13.02
2022-11-16T00:43:59.450Z,13.95
2022-11-16T00:49:01.527Z,12.77
2022-11-16T00:54:05.050Z,16.30
2022-11-16T00:59:09.855Z,10.50
2022-11-16T01:04:11.762Z,11.05
2022-11-16T01:09:13.557Z,13.45
2022-11-16T01:14:15.520Z,11.45
2022-11-16T01:19:18.516Z,9.65
2022-11-16T01:24:20.299Z,11.93
2022-11-16T01:29:22.074Z,11.35
2022-11-16T01:34:29.842Z,12.73
2022-11-16T01:39:39.272Z,11.90
2022-11-16T01:44:42.313Z,10.43
2022-11-16T01:49:56.627Z,10.88
2022-11-16T01:55:04.364Z,9.02
2022-11-16T02:00:19.063Z,11.10
2022-11-16T02:05:45.136Z,11.15
2022-11-16T02:10:59.044Z,9.88
2022-11-16T02:16:20.367Z,14.02
2022-11-16T02:21:47.093Z,10.65
2022-11-16T02:27:13.875Z,12.95
2022-11-16T02:32:37.733Z,15.88
2022-11-16T02:37:46.114Z,13.13
2022-11-16T02:42:54.844Z,10.65
2022-11-16T02:48:03.941Z,16.40
2022-11-16T02:53:06.091Z,10.20
2022-11-16T02:58:12.474Z,12.05
2022-11-16T03:03:35.350Z,12.05
2022-11-16T03:08:45.214Z,14.68
2022-11-16T03:13:50.054Z,12.68
2022-11-16T03:18:54.526Z,10.93
2022-11-16T03:23:58.676Z,12.50
2022-11-16T03:29:08.676Z,12.90
2022-11-16T03:34:18.426Z,12.68
2022-11-16T03:39:31.916Z,10.97
2022-11-16T03:44:35.374Z,11.93
2022-11-16T03:49:46.400Z,10.98
2022-11-16T03:54:50.110Z,14.43
2022-11-16T03:59:53.001Z,15.82
2022-11-16T04:05:13.835Z,13.93
2022-11-16T04:10:34.312Z,17.83
2022-11-16T04:15:56.189Z,13.75
2022-11-16T04:21:37.709Z,12.75
2022-11-16T04:27:01.498Z,13.73
2022-11-16T04:32:23.061Z,14.27
2022-11-16T04:37:43.957Z,13.40
2022-11-16T04:42:58.090Z,10.25
2022-11-16T04:48:01.050Z,11.10
2022-11-16T04:53:07.453Z,12.80
2022-11-16T04:58:17.496Z,10.60
2022-11-16T05:03:20.388Z,10.52
2022-11-16T05:08:22.330Z,9.40
2022-11-16T05:13:26.271Z,8.30
2022-11-16T05:18:28.210Z,9.13
2022-11-16T05:23:49.301Z,9.85
2022-11-16T05:28:54.531Z,9.15
2022-11-16T05:33:56.424Z,8.82
2022-11-16T05:38:59.272Z,8.75
2022-11-16T05:44:04.909Z,11.63
2022-11-16T05:49:10.140Z,6.68
2022-11-16T05:54:14.667Z,9.38
2022-11-16T05:59:19.015Z,7.70
2022-11-16T06:04:24.613Z,10.77
2022-11-16T06:09:28.683Z,7.95
2022-11-16T06:14:34.638Z,9.05
2022-11-16T06:19:36.668Z,11.65
2022-11-16T06:24:38.820Z,10.63
2022-11-16T06:29:40.697Z,10.30
2022-11-16T06:34:42.640Z,9.23
2022-11-16T06:39:46.921Z,8.90
2022-11-16T06:44:49.004Z,13.20
2022-11-16T06:49:54.180Z,16.23
2022-11-16T06:54:58.544Z,11.60
2022-11-16T07:00:00.411Z,8.70
2022-11-16T07:05:03.891Z,13.23
2022-11-16T07:10:07.816Z,13.02
2022-11-16T07:15:11.098Z,8.60
2022-11-16T07:20:15.860Z,11.95
2022-11-16T07:25:19.281Z,13.15
2022-11-16T07:30:22.193Z,10.77
2022-11-16T07:35:32.134Z,10.43
2022-11-16T07:40:34.194Z,12.15
2022-11-16T07:45:36.455Z,12.70
2022-11-16T07:50:42.494Z,9.95
2022-11-16T07:55:44.413Z,14.10
2022-11-16T08:00:48.472Z,11.68
2022-11-16T08:05:59.438Z,12.90
2022-11-16T08:11:06.426Z,13.38
2022-11-16T08:16:16.914Z,13.57
2022-11-16T08:21:20.803Z,16.05
2022-11-16T08:26:22.961Z,10.68
2022-11-16T08:31:32.413Z,14.90
2022-11-16T08:41:44.864Z,9.95
2022-11-16T08:46:47.706Z,11.32
2022-11-16T08:52:00.306Z,12.63
2022-11-16T08:57:02.547Z,8.88
2022-11-16T09:02:07.218Z,11.38
2022-11-16T09:07:10.755Z,8.88
2022-11-16T09:12:12.759Z,10.52
2022-11-16T09:17:18.818Z,10.90
2022-11-16T09:22:23.715Z,10.15
2022-11-16T09:27:25.558Z,8.57
2022-11-16T09:32:27.455Z,12.40
2022-11-16T09:37:29.450Z,11.00
2022-11-16T09:42:56.216Z,8.82
2022-11-16T09:48:03.288Z,8.68
2022-11-16T09:53:20.676Z,7.07
2022-11-16T09:58:31.820Z,9.63
2022-11-16T10:03:40.251Z,8.75
2022-11-16T10:08:49.056Z,11.13
2022-11-16T10:13:50.864Z,11.63
2022-11-16T10:19:06.035Z,11.82
2022-11-16T10:24:25.820Z,13.25
2022-11-16T10:29:52.460Z,17.57
2022-11-16T10:34:57.174Z,10.13
2022-11-16T10:39:59.373Z,8.30
2022-11-16T10:45:39.906Z,8.38
2022-11-16T10:50:47.052Z,7.82
2022-11-16T10:56:06.907Z,6.68
2022-11-16T11:01:10.635Z,6.80
2022-11-16T11:06:13.940Z,7.72
2022-11-16T11:11:41.752Z,6.90
2022-11-16T11:16:43.536Z,7.72
2022-11-16T11:21:47.118Z,7.45
2022-11-16T11:26:55.312Z,9.35
2022-11-16T11:32:23.850Z,9.23
2022-11-16T11:37:34.164Z,9.93
2022-11-16T11:42:41.365Z,7.32
2022-11-16T11:47:59.206Z,11.40
2022-11-16T11:53:30.511Z,13.02
2022-11-16T11:58:35.784Z,10.38
2022-11-16T12:04:16.193Z,8.82
2022-11-16T12:09:41.394Z,8.20
2022-11-16T12:15:03.391Z,6.65
2022-11-16T12:20:22.111Z,9.98
2022-11-16T12:25:42.064Z,6.60
2022-11-16T12:31:25.196Z,7.90
2022-11-16T12:36:32.989Z,7.75
2022-11-16T12:41:56.419Z,5.78
2022-11-16T12:47:07.033Z,5.68
2022-11-16T12:52:33.151Z,6.43
2022-11-16T12:57:48.021Z,5.00
2022-11-16T13:02:56.924Z,7.05
2022-11-16T13:08:04.871Z,5.38
2022-11-16T13:13:39.368Z,5.32
2022-11-16T13:18:42.984Z,6.00
2022-11-16T13:24:08.219Z,5.90
2022-11-16T13:29:24.602Z,5.13
2022-11-16T13:34:32.145Z,7.50
2022-11-16T13:39:58.688Z,7.85
2022-11-16T13:45:20.240Z,7.43
2022-11-16T13:50:30.828Z,8.20
2022-11-16T13:55:41.291Z,6.43
2022-11-16T14:00:56.559Z,6.38
2022-11-16T14:05:58.609Z,7.88
2022-11-16T14:11:01.280Z,10.38
2022-11-16T14:16:23.428Z,21.40
2022-11-16T14:21:40.182Z,13.02
2022-11-16T14:27:03.865Z,10.65
2022-11-16T14:32:27.342Z,13.02
2022-11-16T14:37:29.238Z,40.15
2022-11-16T14:42:54.377Z,20.05
2022-11-16T14:48:04.820Z,16.60
2022-11-16T14:53:09.588Z,15.88
2022-11-16T14:58:19.283Z,17.00
2022-11-16T15:03:23.822Z,13.82
2022-11-16T15:08:32.727Z,13.52
2022-11-16T15:13:36.089Z,17.98
2022-11-16T15:18:38.178Z,15.15
2022-11-16T15:24:02.005Z,20.63
2022-11-16T15:29:17.974Z,31.13
2022-11-16T15:34:20.553Z,23.30
2022-11-16T15:39:27.838Z,26.73
2022-11-16T15:44:32.420Z,25.15
2022-11-16T15:49:40.283Z,19.17
2022-11-16T15:55:00.874Z,21.70
2022-11-16T16:05:06.823Z,29.00
2022-11-16T16:10:24.736Z,22.13
2022-11-16T16:15:34.192Z,24.75
2022-11-16T16:20:36.237Z,22.03
2022-11-16T16:25:38.496Z,22.05
2022-11-16T16:30:40.467Z,20.08
2022-11-16T16:35:42.291Z,17.38
2022-11-16T16:40:44.129Z,18.27
2022-11-16T16:45:46.103Z,18.15
2022-11-16T16:50:48.015Z,17.00
2022-11-16T16:55:49.920Z,72.70
2022-11-16T17:00:55.707Z,80.35
2022-11-16T17:06:03.288Z,26.92
2022-11-16T17:11:05.727Z,23.33
2022-11-16T17:16:07.926Z,19.45
2022-11-16T17:21:13.249Z,59.38
2022-11-16T17:26:15.477Z,46.90
2022-11-16T17:31:17.849Z,42.10
2022-11-16T17:36:20.550Z,198.43
2022-11-16T17:41:22.442Z,108.28
2022-11-16T17:46:25.841Z,44.22
2022-11-16T17:51:29.985Z,47.75
2022-11-16T17:56:31.900Z,24.00
2022-11-16T18:01:33.866Z,43.85
2022-11-16T18:06:35.769Z,41.53
2022-11-16T18:11:39.521Z,42.10
2022-11-16T18:16:43.475Z,54.80
2022-11-16T18:21:46.335Z,60.05
2022-11-16T18:26:48.140Z,125.88
2022-11-16T18:31:50.028Z,76.35
2022-11-16T18:36:52.053Z,57.67
2022-11-16T18:41:55.220Z,72.95
2022-11-16T18:46:58.817Z,97.38
2022-11-16T18:52:00.749Z,48.97
2022-11-16T18:57:02.578Z,27.85
2022-11-16T19:02:07.638Z,20.15
2022-11-16T19:07:10.087Z,16.38
2022-11-16T19:12:13.088Z,17.67
2022-11-16T19:17:15.217Z,19.33
2022-11-16T19:22:17.557Z,18.70
2022-11-16T19:27:19.697Z,21.85
2022-11-16T19:32:22.624Z,23.95
2022-11-16T19:37:24.638Z,20.77
2022-11-16T19:42:26.963Z,19.65
2022-11-16T19:47:30.120Z,22.42
2022-11-16T19:52:32.205Z,10.05
2022-11-16T19:57:34.197Z,7.72
2022-11-16T20:02:36.697Z,7.15
2022-11-16T20:07:39.021Z,5.75
2022-11-16T20:12:41.358Z,8.80
2022-11-16T20:17:43.562Z,7.57
2022-11-16T20:22:47.704Z,7.00
2022-11-16T20:27:49.591Z,7.40
2022-11-16T20:32:51.381Z,3.42
2022-11-16T20:37:53.159Z,4.82
2022-11-16T20:42:59.164Z,6.72
2022-11-16T20:48:01.048Z,5.72
2022-11-16T20:53:02.852Z,4.03
2022-11-16T20:58:04.658Z,3.63
2022-11-16T21:03:06.526Z,4.35
2022-11-16T21:08:08.398Z,4.45
2022-11-16T21:13:34.676Z,4.88
2022-11-16T21:18:37.069Z,3.55
2022-11-16T21:23:40.689Z,4.47
2022-11-16T21:28:45.385Z,4.40
2022-11-16T21:33:48.203Z,5.78
2022-11-16T21:38:50.656Z,3.85
2022-11-16T21:43:52.866Z,4.28
2022-11-16T21:48:56.640Z,3.40
2022-11-16T21:53:58.656Z,4.85
2022-11-16T21:59:00.600Z,4.97
2022-11-16T22:04:20.658Z,5.88
2022-11-16T22:09:22.528Z,5.05
2022-11-16T22:14:24.364Z,3.53
2022-11-16T22:19:26.219Z,7.13
2022-11-16T22:24:28.049Z,4.88
2022-11-16T22:29:29.848Z,5.38
2022-11-16T22:34:31.819Z,6.32
2022-11-16T22:39:33.632Z,3.85
2022-11-16T22:44:35.443Z,6.75
2022-11-16T22:49:37.544Z,4.20
2022-11-16T22:54:39.397Z,4.35
2022-11-16T22:59:41.196Z,13.75
2022-11-16T23:04:43.031Z,6.13
2022-11-16T23:09:44.860Z,5.13
2022-11-16T23:15:05.517Z,6.00
2022-11-16T23:20:26.529Z,6.63
2022-11-16T23:25:47.237Z,5.95
2022-11-16T23:30:49.031Z,4.45
2022-11-16T23:35:51.118Z,4.57
2022-11-16T23:40:54.200Z,4.47
2022-11-16T23:45:56.047Z,5.03
2022-11-16T23:50:57.836Z,6.20
2022-11-16T23:56:05.786Z,6.32
